Airfield :
LOGIN :

Register | Disclaimer

   EN    FR    IT 

 










Legend :    VFR   Marginal VFR   IFR   Intensive IFR   Very Intensive IFR
Visi :
Ceiling :
>= 8 km
>= 3000ft
5 to 8 km
1000 to 3000 ft
1500m to 5 km
500 to 1000 ft
800 to 1500m
200 to 500 ft
< 800m
< 200 ft
Symbols :   Thunderstorms  Fog  Heavy snow  Heavy precipitations  Wind > 20 kt
SIGMETs :     Misc.  Thunderstorms  Icing  Turbulence  Mountain Waves  Volcanic Ashes






- Airport Elevation : 55 ft
- IATA code : DSA


EGCN - Robin Hood Doncaster Sheffield

CURRENT METAR :
  • 011250Z 30008KT 260V330 9999 FEW037 09/01 Q1023

EXPIRED METARs :
  • 011220Z 30008KT 280V340 9999 FEW032 09/02 Q1023
  • 011150Z 30008KT 9999 SCT033 08/02 Q1023
  • 011120Z 30009KT 270V360 9999 FEW037 09/01 Q1023
  • 011050Z 28008KT 250V310 CAVOK 09/M00 Q1024
  • 011020Z 28008KT CAVOK 09/01 Q1024

TAF TAF EGCN
Valid from the 01 at 12:00 until the 02 at 12:00 UTC


011101Z 0112/0212 30008KT CAVOK
TEMPO 0112/0118 BKN040
PROB30
TEMPO 0112/0118 8000 -SHRA
PROB30
TEMPO 0200/0206 BKN012
PROB30
TEMPO 0209/0212 26015G25KT 7000 SHRA



MET'MAP, your aeronautical weather chart ! - Copyright ORBIFLY December 2007 - Disclaimer

ORBIFLY MET'MAP TEAM :

Programming & Development : Alexandra Zaïnal
Concept & original design : Baudouin d'Aumeries
Assistance for programming : Marc-Olivier Méhu
Technical & hardware support : Manuel Goepfert

Contact : metmap@orbifly.com




SOURCES & CREDITS :

   NOAA